Time;durP1;ratioP1;P1;durP2;ratioP2;P2;SDS_P1;SDS_P2;PMS_P1;PMS_P2;Temp;Humidity;BMP_temperature;BMP_pressure;BME280_temperature;BME280_humidity;BME280_pressure;Samples;Min_cycle;Max_cycle;Signal;HPM_P1;HPM_P2
2024/03/03 00:02:11;;;;;;;;;5.25;3.50;;;;;;;;5054457;28;45835;-66
2024/03/03 00:04:37;;;;;;;;;3.00;3.00;;;;;;;;5041849;28;45327;-66
2024/03/03 00:07:02;;;;;;;;;4.00;4.00;;;;;;;;5048483;28;45457;-66
2024/03/03 00:09:28;;;;;;;;;5.25;5.25;;;;;;;;5051635;28;45534;-66
2024/03/03 00:11:53;;;;;;;;;3.25;3.25;;;;;;;;5040768;28;45331;-69
2024/03/03 00:14:18;;;;;;;;;4.00;4.00;;;;;;;;5049485;28;45418;-66
2024/03/03 00:16:43;;;;;;;;;4.00;4.00;;;;;;;;5042614;28;45383;-66
2024/03/03 00:19:09;;;;;;;;;5.50;5.50;;;;;;;;5040841;28;47177;-66
2024/03/03 00:21:34;;;;;;;;;5.25;5.25;;;;;;;;5046967;28;45411;-66
2024/03/03 00:23:59;;;;;;;;;6.50;4.50;;;;;;;;5048438;28;45529;-66
2024/03/03 00:26:25;;;;;;;;;8.50;8.00;;;;;;;;5046959;28;45356;-66
2024/03/03 00:28:50;;;;;;;;;7.00;7.00;;;;;;;;5039622;28;47242;-66
2024/03/03 00:31:18;;;;;;;;;8.67;8.33;;;;;;;;5047247;28;45429;-66
2024/03/03 00:33:44;;;;;;;;;8.75;8.75;;;;;;;;5042473;28;45511;-66
2024/03/03 00:36:09;;;;;;;;;9.50;8.00;;;;;;;;5046631;28;45401;-66
2024/03/03 00:38:36;;;;;;;;;12.00;10.00;;;;;;;;5047675;28;47995;-66
2024/03/03 00:41:02;;;;;;;;;8.75;8.75;;;;;;;;5046410;28;45323;-66
2024/03/03 00:43:28;;;;;;;;;7.50;6.25;;;;;;;;5041083;28;45567;-66
2024/03/03 00:45:53;;;;;;;;;8.67;8.00;;;;;;;;5047272;28;45250;-66
2024/03/03 00:48:18;;;;;;;;;16.25;15.00;;;;;;;;5039516;28;46333;-66
2024/03/03 00:50:43;;;;;;;;;13.33;13.33;;;;;;;;5046953;28;45370;-66
2024/03/03 00:53:08;;;;;;;;;13.00;12.33;;;;;;;;5040456;28;45360;-66
2024/03/03 00:55:34;;;;;;;;;10.00;9.67;;;;;;;;5045698;28;45615;-66
2024/03/03 00:57:59;;;;;;;;;13.00;12.33;;;;;;;;5040520;28;47402;-67
2024/03/03 01:00:24;;;;;;;;;14.00;14.00;;;;;;;;5041841;28;45879;-67
2024/03/03 01:02:49;;;;;;;;;15.00;13.00;;;;;;;;5035156;28;45398;-66
2024/03/03 01:05:15;;;;;;;;;12.25;11.50;;;;;;;;5046430;28;45330;-66
2024/03/03 01:07:40;;;;;;;;;14.25;11.25;;;;;;;;5040998;28;45529;-66
2024/03/03 01:10:06;;;;;;;;;13.00;13.00;;;;;;;;5037475;28;45700;-66
2024/03/03 01:12:32;;;;;;;;;14.00;13.00;;;;;;;;5039471;28;45607;-66
2024/03/03 01:14:57;;;;;;;;;15.00;13.00;;;;;;;;5042128;28;45494;-66
2024/03/03 01:17:22;;;;;;;;;19.50;15.00;;;;;;;;5037091;28;47418;-66
2024/03/03 01:19:48;;;;;;;;;12.50;12.50;;;;;;;;5048137;28;45445;-66
2024/03/03 01:22:13;;;;;;;;;18.00;17.50;;;;;;;;5046638;28;45457;-66
2024/03/03 01:24:39;;;;;;;;;22.00;18.00;;;;;;;;5043212;28;45768;-66
2024/03/03 01:27:04;;;;;;;;;24.00;22.00;;;;;;;;5041478;28;45560;-66
2024/03/03 01:29:29;;;;;;;;;30.50;28.00;;;;;;;;5038178;28;45410;-66
2024/03/03 01:31:55;;;;;;;;;25.00;23.67;;;;;;;;5038363;28;45346;-66
2024/03/03 01:34:22;;;;;;;;;28.25;25.50;;;;;;;;5037235;28;45425;-66
2024/03/03 01:36:47;;;;;;;;;23.50;22.25;;;;;;;;5049500;28;48450;-66
2024/03/03 01:39:13;;;;;;;;;27.67;26.67;;;;;;;;5047124;28;45592;-66
2024/03/03 01:41:43;;;;;;;;;26.33;24.33;;;;;;;;5044644;28;45549;-66
2024/03/03 01:44:08;;;;;;;;;26.25;22.50;;;;;;;;5041763;28;45431;-66
2024/03/03 01:46:33;;;;;;;;;26.67;25.00;;;;;;;;5049164;28;47337;-66
2024/03/03 01:48:59;;;;;;;;;25.50;22.25;;;;;;;;5048399;28;45476;-66
2024/03/03 01:51:24;;;;;;;;;19.25;18.00;;;;;;;;5043887;28;45478;-66
2024/03/03 01:53:52;;;;;;;;;19.00;17.25;;;;;;;;5049111;28;45475;-66
2024/03/03 01:56:22;;;;;;;;;22.75;21.25;;;;;;;;5050160;28;46411;-66
2024/03/03 01:58:49;;;;;;;;;20.00;18.75;;;;;;;;5039905;28;46270;-67
2024/03/03 02:01:14;;;;;;;;;21.75;19.00;;;;;;;;5045653;28;45456;-66
2024/03/03 02:03:40;;;;;;;;;20.50;19.25;;;;;;;;5039926;28;45501;-66
2024/03/03 02:06:07;;;;;;;;;22.25;16.00;;;;;;;;5052992;28;45495;-66
2024/03/03 02:08:33;;;;;;;;;20.25;18.00;;;;;;;;5047826;28;45686;-66
2024/03/03 02:10:58;;;;;;;;;18.75;16.50;;;;;;;;5044913;28;45398;-66
2024/03/03 02:13:24;;;;;;;;;14.00;14.00;;;;;;;;5039531;28;45414;-66
2024/03/03 02:15:49;;;;;;;;;16.75;15.50;;;;;;;;5045593;28;45563;-66
2024/03/03 02:18:15;;;;;;;;;16.25;14.25;;;;;;;;5045395;28;45787;-66
2024/03/03 02:20:41;;;;;;;;;15.00;14.25;;;;;;;;5044891;28;45464;-66
2024/03/03 02:23:06;;;;;;;;;17.75;16.75;;;;;;;;5046122;28;45855;-66
2024/03/03 02:25:34;;;;;;;;;22.50;20.00;;;;;;;;5050906;28;45757;-66
2024/03/03 02:28:01;;;;;;;;;15.75;15.25;;;;;;;;5040694;28;45479;-66
2024/03/03 02:30:27;;;;;;;;;14.75;14.00;;;;;;;;5040834;28;45477;-66
2024/03/03 02:32:52;;;;;;;;;11.67;10.00;;;;;;;;5047816;28;45248;-66
2024/03/03 02:35:17;;;;;;;;;13.00;13.00;;;;;;;;5043450;28;46442;-66
2024/03/03 02:37:48;;;;;;;;;21.67;19.33;;;;;;;;5049597;28;45310;-66
2024/03/03 02:40:13;;;;;;;;;14.75;14.25;;;;;;;;5050933;28;45476;-66
2024/03/03 02:42:38;;;;;;;;;15.25;15.25;;;;;;;;5049067;28;45382;-67
2024/03/03 02:45:04;;;;;;;;;16.00;14.00;;;;;;;;5043684;28;46394;-67
2024/03/03 02:47:30;;;;;;;;;18.25;15.75;;;;;;;;5046832;28;45461;-66
2024/03/03 02:49:55;;;;;;;;;14.50;14.00;;;;;;;;5040794;28;45358;-67
2024/03/03 02:52:20;;;;;;;;;10.00;9.00;;;;;;;;5039670;28;46029;-66
2024/03/03 02:54:45;;;;;;;;;15.00;12.75;;;;;;;;5048929;28;47585;-66
2024/03/03 02:57:11;;;;;;;;;12.50;10.50;;;;;;;;5042900;28;45605;-66
2024/03/03 02:59:36;;;;;;;;;19.25;18.50;;;;;;;;5042656;28;45223;-67
2024/03/03 03:02:01;;;;;;;;;19.67;17.67;;;;;;;;5043076;28;45795;-66
2024/03/03 03:04:27;;;;;;;;;16.25;15.50;;;;;;;;5039029;28;47581;-66
2024/03/03 03:06:52;;;;;;;;;17.75;15.50;;;;;;;;5050887;28;45307;-66
2024/03/03 03:09:17;;;;;;;;;14.25;14.25;;;;;;;;5052856;28;45534;-66
2024/03/03 03:11:43;;;;;;;;;20.00;16.33;;;;;;;;5041721;28;45516;-67
2024/03/03 03:14:08;;;;;;;;;11.50;11.00;;;;;;;;5038227;28;47453;-66
2024/03/03 03:16:33;;;;;;;;;13.00;9.00;;;;;;;;5044256;28;45422;-66
2024/03/03 03:18:58;;;;;;;;;13.33;10.00;;;;;;;;5046801;28;45309;-66
2024/03/03 03:21:27;;;;;;;;;11.67;11.67;;;;;;;;5050947;28;45231;-66
2024/03/03 03:23:53;;;;;;;;;14.00;10.25;;;;;;;;5050834;28;46112;-66
2024/03/03 03:26:18;;;;;;;;;10.00;10.00;;;;;;;;5043952;28;45614;-66
2024/03/03 03:28:43;;;;;;;;;9.00;9.00;;;;;;;;5039233;28;45425;-66
2024/03/03 03:31:08;;;;;;;;;10.00;10.00;;;;;;;;5046148;28;45428;-66
2024/03/03 03:33:33;;;;;;;;;10.75;9.75;;;;;;;;5042393;28;48298;-66
2024/03/03 03:35:59;;;;;;;;;9.00;9.00;;;;;;;;5050851;28;45467;-66
2024/03/03 03:38:24;;;;;;;;;12.75;10.75;;;;;;;;5051191;28;45405;-66
2024/03/03 03:40:49;;;;;;;;;10.00;10.00;;;;;;;;5045717;28;46213;-67
2024/03/03 03:43:14;;;;;;;;;12.00;9.67;;;;;;;;5044037;28;46126;-66
2024/03/03 03:45:40;;;;;;;;;14.00;11.00;;;;;;;;5051124;28;45432;-67
2024/03/03 03:48:05;;;;;;;;;12.25;11.00;;;;;;;;5049747;28;45507;-67
2024/03/03 03:50:30;;;;;;;;;8.50;8.50;;;;;;;;5040213;28;45454;-66
2024/03/03 03:52:56;;;;;;;;;10.00;9.00;;;;;;;;5038563;28;47048;-66
2024/03/03 03:55:21;;;;;;;;;10.67;10.67;;;;;;;;5050619;28;45328;-66
2024/03/03 03:57:46;;;;;;;;;7.75;7.75;;;;;;;;5038987;28;45295;-66
2024/03/03 04:00:11;;;;;;;;;13.25;10.50;;;;;;;;5044450;28;45987;-66
2024/03/03 04:02:37;;;;;;;;;9.50;9.25;;;;;;;;5042232;28;46021;-66
2024/03/03 04:05:04;;;;;;;;;10.00;9.00;;;;;;;;5046757;28;45323;-66
2024/03/03 04:07:29;;;;;;;;;6.00;6.00;;;;;;;;5045264;28;45562;-66
2024/03/03 04:09:55;;;;;;;;;13.25;9.75;;;;;;;;5049854;28;45841;-66
2024/03/03 04:12:20;;;;;;;;;7.50;7.50;;;;;;;;5041571;28;46414;-67
2024/03/03 04:14:45;;;;;;;;;14.00;9.00;;;;;;;;5042678;28;45324;-66
2024/03/03 04:17:10;;;;;;;;;8.00;7.00;;;;;;;;5039870;28;45351;-66
2024/03/03 04:19:37;;;;;;;;;4.67;4.67;;;;;;;;5048820;28;45294;-66
2024/03/03 04:22:03;;;;;;;;;5.50;5.00;;;;;;;;5048817;28;46507;-66
2024/03/03 04:24:28;;;;;;;;;6.00;5.00;;;;;;;;5044334;28;45438;-66
2024/03/03 04:26:53;;;;;;;;;3.00;3.00;;;;;;;;5042409;28;45649;-66
2024/03/03 04:29:19;;;;;;;;;6.33;5.67;;;;;;;;5036581;28;45868;-66
2024/03/03 04:31:44;;;;;;;;;4.67;4.67;;;;;;;;5048783;28;46597;-66
2024/03/03 04:34:12;;;;;;;;;7.00;3.00;;;;;;;;5044080;28;45354;-66
2024/03/03 04:36:41;;;;;;;;;3.00;3.00;;;;;;;;5041891;28;45523;-66
2024/03/03 04:39:07;;;;;;;;;3.00;3.00;;;;;;;;5047650;28;45427;-66
2024/03/03 04:41:32;;;;;;;;;4.67;4.67;;;;;;;;5048649;28;45417;-66
2024/03/03 04:43:57;;;;;;;;;6.50;5.00;;;;;;;;5044392;28;45345;-67
2024/03/03 04:46:23;;;;;;;;;7.00;5.33;;;;;;;;5041975;28;45369;-66
2024/03/03 04:48:48;;;;;;;;;7.25;4.50;;;;;;;;5048837;28;45493;-66
2024/03/03 04:51:13;;;;;;;;;7.00;5.50;;;;;;;;5037589;28;47235;-66
2024/03/03 04:53:39;;;;;;;;;8.00;5.75;;;;;;;;5048624;28;45374;-66
2024/03/03 04:56:04;;;;;;;;;5.75;5.75;;;;;;;;5048513;28;45472;-66
2024/03/03 04:58:29;;;;;;;;;5.50;3.00;;;;;;;;5042027;28;45473;-67
2024/03/03 05:00:55;;;;;;;;;11.33;8.00;;;;;;;;5035771;28;45441;-66
2024/03/03 05:03:20;;;;;;;;;13.25;11.00;;;;;;;;5035904;28;45402;-66
2024/03/03 05:05:45;;;;;;;;;13.75;9.75;;;;;;;;5050512;28;45530;-66
2024/03/03 05:08:11;;;;;;;;;10.00;10.00;;;;;;;;5044079;28;45365;-67
2024/03/03 05:10:36;;;;;;;;;10.50;10.00;;;;;;;;5043079;28;47347;-66
2024/03/03 05:13:02;;;;;;;;;14.00;10.67;;;;;;;;5039740;28;45379;-66
2024/03/03 05:15:27;;;;;;;;;8.00;7.00;;;;;;;;5042330;28;45450;-66
2024/03/03 05:17:52;;;;;;;;;10.75;10.00;;;;;;;;5041148;28;45495;-66
2024/03/03 05:20:18;;;;;;;;;13.33;13.33;;;;;;;;5044746;28;46395;-66
2024/03/03 05:22:44;;;;;;;;;8.00;8.00;;;;;;;;5048502;28;45361;-66
2024/03/03 05:25:10;;;;;;;;;11.75;11.75;;;;;;;;5048433;28;45436;-66
2024/03/03 05:27:36;;;;;;;;;14.50;11.75;;;;;;;;5038010;28;46816;-66
2024/03/03 05:30:01;;;;;;;;;16.25;13.50;;;;;;;;5036375;28;47404;-66
2024/03/03 05:32:27;;;;;;;;;12.33;8.00;;;;;;;;5048287;28;45474;-66
2024/03/03 05:34:52;;;;;;;;;14.75;14.75;;;;;;;;5048250;28;45424;-66
2024/03/03 05:37:17;;;;;;;;;14.00;13.00;;;;;;;;5041131;28;45499;-66
2024/03/03 05:39:42;;;;;;;;;15.00;14.00;;;;;;;;5042641;28;48163;-67
2024/03/03 05:42:08;;;;;;;;;14.00;12.75;;;;;;;;5047636;28;45397;-66
2024/03/03 05:44:33;;;;;;;;;18.75;16.50;;;;;;;;5048082;28;45441;-66
2024/03/03 05:46:58;;;;;;;;;20.00;15.25;;;;;;;;5041032;28;45540;-66
2024/03/03 05:49:24;;;;;;;;;18.75;16.75;;;;;;;;5042407;28;48190;-66
2024/03/03 05:51:49;;;;;;;;;14.25;14.00;;;;;;;;5040911;28;45327;-66
2024/03/03 05:54:14;;;;;;;;;14.33;14.33;;;;;;;;5043802;28;45508;-66
2024/03/03 05:56:40;;;;;;;;;14.75;13.50;;;;;;;;5049145;28;45535;-66
2024/03/03 05:59:05;;;;;;;;;15.75;15.75;;;;;;;;5035677;28;47991;-66
2024/03/03 06:01:30;;;;;;;;;16.25;15.50;;;;;;;;5035570;28;45618;-66
2024/03/03 06:03:56;;;;;;;;;18.50;15.75;;;;;;;;5036816;28;45403;-66
2024/03/03 06:06:21;;;;;;;;;15.00;13.25;;;;;;;;5049922;28;46361;-66
2024/03/03 06:08:50;;;;;;;;;21.00;14.25;;;;;;;;5047609;28;47212;-66
2024/03/03 06:11:15;;;;;;;;;15.50;14.25;;;;;;;;5040659;28;45595;-66
2024/03/03 06:13:40;;;;;;;;;17.50;14.50;;;;;;;;5037612;28;45680;-66
2024/03/03 06:16:06;;;;;;;;;21.00;17.33;;;;;;;;5041486;28;46042;-66
2024/03/03 06:18:31;;;;;;;;;16.00;16.00;;;;;;;;5045803;28;47754;-66
2024/03/03 06:20:57;;;;;;;;;18.67;15.00;;;;;;;;5040412;28;45518;-66
2024/03/03 06:23:22;;;;;;;;;18.00;15.00;;;;;;;;5049424;28;45378;-66
2024/03/03 06:25:48;;;;;;;;;19.33;19.00;;;;;;;;5043426;28;45378;-66
2024/03/03 06:28:13;;;;;;;;;19.25;16.50;;;;;;;;5047361;28;48234;-66
2024/03/03 06:30:38;;;;;;;;;10.75;10.75;;;;;;;;5041918;28;45457;-66
2024/03/03 06:33:03;;;;;;;;;23.50;19.00;;;;;;;;5049092;28;45367;-66
2024/03/03 06:35:29;;;;;;;;;20.50;19.25;;;;;;;;5049813;28;45552;-66
2024/03/03 06:37:54;;;;;;;;;25.25;25.25;;;;;;;;5048831;28;47104;-66
2024/03/03 06:40:19;;;;;;;;;20.25;18.75;;;;;;;;5042618;28;45517;-66
2024/03/03 06:42:45;;;;;;;;;17.25;16.75;;;;;;;;5047618;28;45374;-66
2024/03/03 06:45:11;;;;;;;;;22.75;19.75;;;;;;;;5051297;28;45556;-66
2024/03/03 06:47:36;;;;;;;;;21.50;18.00;;;;;;;;5050085;28;45439;-66
2024/03/03 06:50:02;;;;;;;;;19.75;19.50;;;;;;;;5041717;28;45417;-66
2024/03/03 06:52:30;;;;;;;;;21.50;19.50;;;;;;;;5039787;28;45505;-66
2024/03/03 06:54:55;;;;;;;;;22.75;19.75;;;;;;;;5050771;28;45855;-66
2024/03/03 06:57:20;;;;;;;;;23.75;20.75;;;;;;;;5046213;28;46989;-66
2024/03/03 06:59:46;;;;;;;;;26.00;22.50;;;;;;;;5043497;28;45387;-66
2024/03/03 07:02:11;;;;;;;;;28.00;23.50;;;;;;;;5058095;28;45282;-66
2024/03/03 07:04:36;;;;;;;;;22.33;19.33;;;;;;;;5043144;28;45445;-66
2024/03/03 07:07:02;;;;;;;;;24.75;22.50;;;;;;;;5048103;28;47360;-66
2024/03/03 07:09:27;;;;;;;;;23.25;21.25;;;;;;;;5047932;28;45461;-66
2024/03/03 07:11:53;;;;;;;;;21.25;21.00;;;;;;;;5041223;28;45351;-66
2024/03/03 07:14:19;;;;;;;;;22.75;20.00;;;;;;;;5039830;28;45752;-67
2024/03/03 07:16:45;;;;;;;;;27.25;22.75;;;;;;;;5050976;28;47349;-66
2024/03/03 07:19:10;;;;;;;;;23.00;21.50;;;;;;;;5043739;28;45345;-66
2024/03/03 07:21:35;;;;;;;;;22.25;20.75;;;;;;;;5050119;28;45775;-66
2024/03/03 07:24:01;;;;;;;;;26.75;24.75;;;;;;;;5043721;28;45506;-66
2024/03/03 07:26:56;;;;;;;;;;;;;;;;;;;;;
2024/03/03 07:29:35;;;;;;;;;;;;;;;;;;;;;
2024/03/03 08:08:50;;;;;;;;;22.25;21.00;;;;;;;;5170799;22;45504;-69
2024/03/03 08:11:15;;;;;;;;;17.25;17.25;;;;;;;;5058095;28;46508;-66
2024/03/03 08:13:40;;;;;;;;;21.75;21.75;;;;;;;;5050626;28;45380;-66
2024/03/03 08:16:06;;;;;;;;;25.75;22.50;;;;;;;;5043431;28;45712;-66
2024/03/03 08:18:32;;;;;;;;;21.25;21.00;;;;;;;;5093080;27;45416;-65
2024/03/03 08:20:57;;;;;;;;;19.75;17.75;;;;;;;;5066336;27;46009;-66
2024/03/03 08:23:22;;;;;;;;;27.33;20.67;;;;;;;;5076521;27;46008;-66
2024/03/03 08:25:47;;;;;;;;;20.33;19.33;;;;;;;;5078729;28;45738;-66
2024/03/03 08:28:13;;;;;;;;;23.50;21.00;;;;;;;;5082415;27;47181;-66
2024/03/03 08:30:38;;;;;;;;;22.00;22.00;;;;;;;;5064334;27;48354;-66
2024/03/03 08:33:03;;;;;;;;;22.00;19.00;;;;;;;;5060951;28;45465;-66
2024/03/03 08:35:29;;;;;;;;;25.33;20.67;;;;;;;;5061339;28;45449;-66
2024/03/03 08:37:54;;;;;;;;;25.67;20.00;;;;;;;;5079542;28;45501;-66
2024/03/03 08:40:20;;;;;;;;;22.75;19.50;;;;;;;;5077668;28;45660;-66
2024/03/03 08:42:45;;;;;;;;;17.75;16.25;;;;;;;;5059594;28;45460;-66
2024/03/03 08:45:12;;;;;;;;;19.67;16.00;;;;;;;;5078224;28;45608;-66
2024/03/03 08:47:45;;;;;;;;;20.00;17.75;;;;;;;;5078227;27;45703;-66
2024/03/03 08:50:19;;;;;;;;;22.50;19.25;;;;;;;;5082731;27;45454;-67
2024/03/03 08:52:49;;;;;;;;;18.50;15.50;;;;;;;;5061096;28;45442;-67
2024/03/03 08:55:22;;;;;;;;;21.75;18.75;;;;;;;;5079431;28;45480;-66
2024/03/03 08:57:50;;;;;;;;;21.25;19.00;;;;;;;;5078501;28;45351;-66
2024/03/03 09:00:16;;;;;;;;;16.25;16.25;;;;;;;;5077872;27;46572;-67
2024/03/03 09:02:41;;;;;;;;;18.25;13.25;;;;;;;;5078686;28;45359;-66
2024/03/03 09:05:10;;;;;;;;;22.75;21.00;;;;;;;;5079496;28;45353;-66
2024/03/03 09:07:36;;;;;;;;;24.25;20.75;;;;;;;;5060468;28;45568;-67
2024/03/03 09:10:03;;;;;;;;;21.00;21.00;;;;;;;;5077977;28;45388;-67
2024/03/03 09:12:29;;;;;;;;;22.50;16.75;;;;;;;;5075206;28;45951;-66
2024/03/03 09:14:54;;;;;;;;;20.00;18.67;;;;;;;;5078115;27;45586;-66
2024/03/03 09:17:20;;;;;;;;;23.67;23.67;;;;;;;;5077658;27;45479;-66
2024/03/03 09:19:45;;;;;;;;;24.50;19.00;;;;;;;;5085767;27;45481;-66
2024/03/03 09:22:11;;;;;;;;;15.25;14.75;;;;;;;;5086893;27;45725;-66
2024/03/03 09:24:36;;;;;;;;;23.00;21.25;;;;;;;;5078945;28;45385;-66
2024/03/03 09:27:01;;;;;;;;;19.00;19.00;;;;;;;;5078878;28;45365;-66
2024/03/03 09:29:26;;;;;;;;;21.00;20.25;;;;;;;;5051380;28;47392;-66
2024/03/03 09:31:52;;;;;;;;;22.67;21.00;;;;;;;;5059693;28;45384;-66
2024/03/03 09:34:17;;;;;;;;;23.75;19.25;;;;;;;;5060437;28;45474;-66
2024/03/03 09:36:43;;;;;;;;;22.00;19.33;;;;;;;;5056247;28;45783;-66
2024/03/03 09:39:09;;;;;;;;;23.00;20.25;;;;;;;;5059191;28;48229;-66
2024/03/03 09:41:34;;;;;;;;;22.25;18.00;;;;;;;;5087438;27;45463;-66
2024/03/03 09:44:07;;;;;;;;;22.00;19.67;;;;;;;;5097905;27;45437;-66
2024/03/03 09:46:33;;;;;;;;;23.50;21.00;;;;;;;;5097183;27;45487;-66
2024/03/03 09:48:58;;;;;;;;;21.50;18.00;;;;;;;;5060370;28;48203;-66
2024/03/03 09:51:26;;;;;;;;;19.00;17.75;;;;;;;;5069317;28;45530;-67
2024/03/03 09:53:52;;;;;;;;;17.50;17.50;;;;;;;;5059534;28;45397;-66
2024/03/03 09:56:19;;;;;;;;;17.00;16.00;;;;;;;;5078324;28;45412;-66
2024/03/03 09:58:46;;;;;;;;;15.50;15.00;;;;;;;;5079083;27;45912;-66
2024/03/03 10:04:09;;;;;;;;;16.00;15.75;;;;;;;;5073399;27;45623;-67
2024/03/03 10:06:44;;;;;;;;;13.25;13.25;;;;;;;;5088280;27;45538;-68
2024/03/03 10:09:14;;;;;;;;;16.00;15.25;;;;;;;;5061608;28;47099;-68
2024/03/03 10:11:47;;;;;;;;;17.25;12.25;;;;;;;;5061601;28;45413;-67
2024/03/03 10:14:37;;;;;;;;;16.00;14.25;;;;;;;;5078696;27;45762;-67
2024/03/03 10:17:25;;;;;;;;;14.50;12.25;;;;;;;;5079263;27;45568;-67
2024/03/03 10:20:08;;;;;;;;;16.25;15.00;;;;;;;;5065538;28;48248;-67
2024/03/03 10:22:34;;;;;;;;;14.50;12.50;;;;;;;;5078512;28;46018;-67
2024/03/03 10:25:21;;;;;;;;;13.25;12.25;;;;;;;;5084260;27;45429;-67
2024/03/03 10:27:50;;;;;;;;;8.25;7.00;;;;;;;;5045307;28;46234;-67
2024/03/03 10:30:21;;;;;;;;;14.50;14.50;;;;;;;;5076365;28;45503;-66
2024/03/03 10:33:05;;;;;;;;;13.25;11.75;;;;;;;;5091017;27;45338;-67
2024/03/03 10:35:34;;;;;;;;;14.50;11.50;;;;;;;;5083681;27;45394;-67
2024/03/03 10:38:01;;;;;;;;;10.00;10.00;;;;;;;;5080606;28;45359;-66
2024/03/03 10:40:27;;;;;;;;;10.25;9.75;;;;;;;;5066204;27;45750;-66
2024/03/03 10:42:55;;;;;;;;;15.00;10.50;;;;;;;;5061352;28;45545;-67
2024/03/03 10:45:23;;;;;;;;;14.75;10.50;;;;;;;;5074601;28;45482;-67
2024/03/03 10:48:09;;;;;;;;;11.00;10.50;;;;;;;;5080418;27;45382;-66
2024/03/03 10:50:34;;;;;;;;;10.00;9.00;;;;;;;;5087103;27;46944;-67
2024/03/03 10:52:59;;;;;;;;;10.75;10.75;;;;;;;;5083402;27;45421;-67
2024/03/03 10:55:29;;;;;;;;;12.25;11.00;;;;;;;;5072283;28;45377;-67
2024/03/03 10:57:55;;;;;;;;;8.00;8.00;;;;;;;;5059088;28;45551;-65
2024/03/03 11:00:24;;;;;;;;;12.00;12.00;;;;;;;;5071685;27;45931;-65
2024/03/03 11:02:53;;;;;;;;;12.00;10.25;;;;;;;;5090285;27;45737;-65
2024/03/03 11:05:19;;;;;;;;;11.25;11.00;;;;;;;;5083782;27;45424;-65
2024/03/03 11:07:44;;;;;;;;;14.75;14.75;;;;;;;;5078891;27;45548;-66
2024/03/03 11:10:10;;;;;;;;;14.50;12.25;;;;;;;;5057945;28;48341;-67
2024/03/03 11:12:38;;;;;;;;;12.50;12.00;;;;;;;;5057658;28;45519;-66
2024/03/03 11:15:07;;;;;;;;;11.25;10.50;;;;;;;;5074493;27;45705;-67
2024/03/03 11:17:38;;;;;;;;;13.50;12.50;;;;;;;;5068328;28;45573;-66
2024/03/03 11:20:14;;;;;;;;;13.50;10.75;;;;;;;;5068785;28;46855;-67
2024/03/03 11:26:04;;;;;;;;;;;;;;;;;;;;;
2024/03/03 11:28:51;;;;;;;;;12.25;11.50;;;;;;;;5074495;27;72341;-67
2024/03/03 11:31:17;;;;;;;;;16.75;14.25;;;;;;;;5069967;28;46479;-67
2024/03/03 11:33:42;;;;;;;;;12.00;10.75;;;;;;;;5075594;27;45837;-67
2024/03/03 11:36:08;;;;;;;;;15.25;13.50;;;;;;;;5075136;27;45752;-67
2024/03/03 11:38:42;;;;;;;;;12.00;12.00;;;;;;;;5075948;28;45577;-67
2024/03/03 11:41:10;;;;;;;;;15.00;10.50;;;;;;;;5058837;27;47203;-66
2024/03/03 11:43:35;;;;;;;;;11.75;10.75;;;;;;;;5074201;27;45505;-66
2024/03/03 11:46:01;;;;;;;;;12.00;12.00;;;;;;;;5081669;27;45641;-66
2024/03/03 11:48:27;;;;;;;;;12.67;11.33;;;;;;;;5057816;28;45831;-66
2024/03/03 11:51:12;;;;;;;;;12.25;9.50;;;;;;;;5073389;27;45650;-66
2024/03/03 11:53:37;;;;;;;;;10.25;10.25;;;;;;;;5049110;28;45343;-64
2024/03/03 11:56:02;;;;;;;;;13.33;12.33;;;;;;;;5077613;27;45380;-66
2024/03/03 11:58:31;;;;;;;;;15.00;12.25;;;;;;;;5059975;28;45385;-66
2024/03/03 12:01:09;;;;;;;;;11.25;10.50;;;;;;;;5078041;27;46538;-66
2024/03/03 12:03:35;;;;;;;;;15.25;12.75;;;;;;;;5058546;28;45657;-66
2024/03/03 12:06:01;;;;;;;;;12.50;11.75;;;;;;;;5078331;27;45495;-66
2024/03/03 12:08:28;;;;;;;;;10.50;10.50;;;;;;;;5063962;28;45428;-66
2024/03/03 12:10:53;;;;;;;;;10.50;10.50;;;;;;;;5077763;27;45534;-66
2024/03/03 12:13:18;;;;;;;;;14.33;13.33;;;;;;;;5077927;28;45291;-66
2024/03/03 12:15:44;;;;;;;;;11.00;10.00;;;;;;;;5073713;27;45275;-66
2024/03/03 12:18:12;;;;;;;;;9.25;8.75;;;;;;;;5071749;28;45463;-66
2024/03/03 12:20:37;;;;;;;;;12.00;11.00;;;;;;;;5077785;28;46273;-66
2024/03/03 12:23:03;;;;;;;;;9.75;9.75;;;;;;;;5083651;27;45438;-66
2024/03/03 12:25:28;;;;;;;;;9.50;8.75;;;;;;;;5089272;27;45473;-66
2024/03/03 12:27:54;;;;;;;;;10.00;9.75;;;;;;;;5078691;28;45555;-66
2024/03/03 12:30:21;;;;;;;;;12.75;10.75;;;;;;;;5084586;27;45719;-66
2024/03/03 12:32:47;;;;;;;;;10.00;10.00;;;;;;;;5069645;28;45331;-66
2024/03/03 12:35:12;;;;;;;;;9.50;9.50;;;;;;;;5098739;27;45423;-66
2024/03/03 12:37:38;;;;;;;;;9.25;9.25;;;;;;;;5087964;27;45286;-66
2024/03/03 12:40:03;;;;;;;;;9.25;9.00;;;;;;;;5098622;27;45354;-66
2024/03/03 12:42:29;;;;;;;;;8.00;8.00;;;;;;;;5082276;27;45429;-66
2024/03/03 12:44:54;;;;;;;;;7.75;7.75;;;;;;;;5059478;28;45321;-66
2024/03/03 12:47:19;;;;;;;;;8.00;8.00;;;;;;;;5079581;28;45457;-66
2024/03/03 12:49:45;;;;;;;;;9.25;9.25;;;;;;;;5079336;28;46190;-66
2024/03/03 12:52:11;;;;;;;;;9.00;8.00;;;;;;;;5061432;28;45802;-66
2024/03/03 12:54:37;;;;;;;;;5.25;5.25;;;;;;;;5079446;28;45443;-66
2024/03/03 12:57:02;;;;;;;;;9.50;7.00;;;;;;;;5060689;28;45582;-66
2024/03/03 12:59:28;;;;;;;;;10.25;6.00;;;;;;;;5060857;28;46661;-66
2024/03/03 13:01:53;;;;;;;;;5.00;5.00;;;;;;;;5077546;28;45499;-66
2024/03/03 13:04:20;;;;;;;;;7.50;4.00;;;;;;;;5061010;28;45474;-66
2024/03/03 13:06:46;;;;;;;;;7.50;5.00;;;;;;;;5061059;28;45516;-66
2024/03/03 13:09:12;;;;;;;;;8.67;7.33;;;;;;;;5078776;28;45303;-66
2024/03/03 13:11:38;;;;;;;;;6.25;6.25;;;;;;;;5079116;28;45648;-66
2024/03/03 13:14:03;;;;;;;;;5.50;5.00;;;;;;;;5078938;28;45730;-66
2024/03/03 13:16:29;;;;;;;;;11.00;9.00;;;;;;;;5079264;28;45593;-66
2024/03/03 13:19:00;;;;;;;;;6.00;6.00;;;;;;;;5060613;28;47068;-66
2024/03/03 13:21:25;;;;;;;;;4.50;4.50;;;;;;;;5079195;28;45651;-66
2024/03/03 13:23:50;;;;;;;;;5.00;5.00;;;;;;;;5079250;28;45398;-66
2024/03/03 13:26:16;;;;;;;;;5.33;5.33;;;;;;;;5060799;28;45434;-66
2024/03/03 13:28:42;;;;;;;;;8.50;8.00;;;;;;;;5078359;28;45351;-66
2024/03/03 13:31:07;;;;;;;;;4.00;4.00;;;;;;;;5063115;28;45614;-66
2024/03/03 13:33:36;;;;;;;;;7.75;7.75;;;;;;;;5081787;27;45416;-65
2024/03/03 13:36:02;;;;;;;;;5.00;5.00;;;;;;;;5063733;28;45414;-66
2024/03/03 13:38:27;;;;;;;;;3.50;3.50;;;;;;;;5078489;27;46214;-68
2024/03/03 13:40:53;;;;;;;;;7.33;5.00;;;;;;;;5064284;28;45427;-67
2024/03/03 13:43:18;;;;;;;;;3.75;3.75;;;;;;;;5076637;27;45467;-65
2024/03/03 13:45:44;;;;;;;;;7.25;5.75;;;;;;;;5064109;28;46148;-66
2024/03/03 13:48:11;;;;;;;;;7.00;5.75;;;;;;;;5081609;28;45362;-66
2024/03/03 13:50:36;;;;;;;;;4.00;4.00;;;;;;;;5056936;28;45419;-66
2024/03/03 13:53:01;;;;;;;;;8.50;8.00;;;;;;;;5062850;28;45530;-66
2024/03/03 13:55:27;;;;;;;;;7.00;5.67;;;;;;;;5082009;28;45471;-66
2024/03/03 13:57:52;;;;;;;;;4.00;3.00;;;;;;;;5064289;28;45661;-65
2024/03/03 14:00:18;;;;;;;;;6.25;6.25;;;;;;;;5082178;28;45525;-64
2024/03/03 14:02:44;;;;;;;;;3.50;3.50;;;;;;;;5073107;28;45259;-64
2024/03/03 14:05:10;;;;;;;;;5.75;4.00;;;;;;;;5072460;28;45332;-64
2024/03/03 14:07:36;;;;;;;;;4.25;4.00;;;;;;;;5063020;28;46864;-66
2024/03/03 14:10:01;;;;;;;;;4.00;4.00;;;;;;;;5063415;28;45996;-66
2024/03/03 14:12:26;;;;;;;;;3.75;2.75;;;;;;;;5081444;28;45520;-66
2024/03/03 14:14:52;;;;;;;;;4.25;3.50;;;;;;;;5063640;28;46007;-66
2024/03/03 14:17:17;;;;;;;;;3.00;3.00;;;;;;;;5081775;28;45562;-66
2024/03/03 14:19:42;;;;;;;;;5.00;3.67;;;;;;;;5081896;28;45366;-66
2024/03/03 14:22:07;;;;;;;;;5.33;4.00;;;;;;;;5081791;28;45552;-66
2024/03/03 14:24:32;;;;;;;;;4.67;4.67;;;;;;;;5063630;28;45591;-66
2024/03/03 14:26:58;;;;;;;;;4.00;4.00;;;;;;;;5080372;28;46477;-66
2024/03/03 14:29:23;;;;;;;;;6.00;4.00;;;;;;;;5063487;28;45427;-66
2024/03/03 14:31:48;;;;;;;;;3.00;3.00;;;;;;;;5063384;28;45534;-66
2024/03/03 14:34:13;;;;;;;;;3.00;3.00;;;;;;;;5063428;28;45501;-66
2024/03/03 14:36:39;;;;;;;;;7.75;5.25;;;;;;;;5083885;27;46607;-66
2024/03/03 14:39:05;;;;;;;;;6.00;5.00;;;;;;;;5062277;28;45437;-66
2024/03/03 14:41:31;;;;;;;;;4.50;4.50;;;;;;;;5084523;27;45547;-66
2024/03/03 14:43:56;;;;;;;;;6.25;6.25;;;;;;;;5083210;27;45454;-66
2024/03/03 14:46:22;;;;;;;;;9.00;6.75;;;;;;;;5062113;28;46944;-66
2024/03/03 14:48:47;;;;;;;;;8.00;8.00;;;;;;;;5063171;28;45390;-66
2024/03/03 14:51:13;;;;;;;;;6.25;6.25;;;;;;;;5072287;27;45371;-66
2024/03/03 14:53:38;;;;;;;;;8.75;7.00;;;;;;;;5063355;28;45743;-66
2024/03/03 14:56:03;;;;;;;;;9.00;7.50;;;;;;;;5061980;28;48052;-66
2024/03/03 14:58:29;;;;;;;;;6.00;6.00;;;;;;;;5062286;28;45419;-66
2024/03/03 15:00:55;;;;;;;;;5.75;5.75;;;;;;;;5062723;28;45603;-66
2024/03/03 15:03:20;;;;;;;;;7.33;7.33;;;;;;;;5080915;28;45607;-66
2024/03/03 15:05:45;;;;;;;;;8.67;7.33;;;;;;;;5081158;28;46168;-66
2024/03/03 15:08:11;;;;;;;;;6.00;6.00;;;;;;;;5077028;27;45620;-66